Time;durP1;ratioP1;P1;durP2;ratioP2;P2;SDS_P1;SDS_P2;PMS_P1;PMS_P2;Temp;Humidity;BMP_temperature;BMP_pressure;BME280_temperature;BME280_humidity;BME280_pressure;Samples;Min_cycle;Max_cycle;Signal;HPM_P1;HPM_P2
2023/01/07 00:01:27;;;;;;;10.13;4.10;;;;;;;;;;4972841;28;20070;-60
2023/01/07 00:03:53;;;;;;;5.30;3.50;;;;;;;;;;4954887;28;20070;-59
2023/01/07 00:06:20;;;;;;;5.72;3.25;;;;;;;;;;4969702;28;20492;-59
2023/01/07 00:08:46;;;;;;;5.45;3.45;;;;;;;;;;4969354;28;20129;-61
2023/01/07 00:11:15;;;;;;;6.07;3.97;;;;;;;;;;4953462;28;20077;-61
2023/01/07 00:13:41;;;;;;;6.45;4.18;;;;;;;;;;4970457;28;20397;-60
2023/01/07 00:16:08;;;;;;;5.07;4.30;;;;;;;;;;4970810;28;20041;-61
2023/01/07 00:18:34;;;;;;;3.65;3.35;;;;;;;;;;4954294;28;20039;-60
2023/01/07 00:21:00;;;;;;;9.38;3.33;;;;;;;;;;4974096;28;20118;-60
2023/01/07 00:23:27;;;;;;;12.70;3.70;;;;;;;;;;4957460;28;20047;-59
2023/01/07 00:25:58;;;;;;;7.75;3.58;;;;;;;;;;4959418;28;20034;-60
2023/01/07 00:28:24;;;;;;;3.25;2.90;;;;;;;;;;4942972;28;20102;-60
2023/01/07 00:30:49;;;;;;;3.53;3.23;;;;;;;;;;4943103;28;20089;-57
2023/01/07 00:33:16;;;;;;;4.10;2.93;;;;;;;;;;4974843;28;20047;-59
2023/01/07 00:35:43;;;;;;;7.60;5.15;;;;;;;;;;4959068;28;20046;-61
2023/01/07 00:38:10;;;;;;;10.95;4.85;;;;;;;;;;4975659;28;20042;-61
2023/01/07 00:40:36;;;;;;;4.80;4.10;;;;;;;;;;4975048;28;20038;-60
2023/01/07 00:43:03;;;;;;;5.82;3.28;;;;;;;;;;4994738;28;20056;-59
2023/01/07 00:45:31;;;;;;;7.75;3.85;;;;;;;;;;4978018;28;20517;-60
2023/01/07 00:47:57;;;;;;;5.95;3.83;;;;;;;;;;4994353;28;20045;-59
2023/01/07 00:50:24;;;;;;;5.70;4.22;;;;;;;;;;4994217;28;20405;-59
2023/01/07 00:52:49;;;;;;;4.47;3.42;;;;;;;;;;4978147;28;20069;-59
2023/01/07 00:55:15;;;;;;;5.67;3.67;;;;;;;;;;4977973;28;20042;-61
2023/01/07 00:57:41;;;;;;;6.53;5.18;;;;;;;;;;4994624;28;20042;-61
2023/01/07 01:00:11;;;;;;;4.20;3.72;;;;;;;;;;4995284;28;20054;-58
2023/01/07 01:02:37;;;;;;;7.00;4.72;;;;;;;;;;4994451;28;20044;-57
2023/01/07 01:05:03;;;;;;;4.37;3.23;;;;;;;;;;4994275;28;20125;-60
2023/01/07 01:07:30;;;;;;;3.85;3.45;;;;;;;;;;4978333;28;20133;-60
2023/01/07 01:09:56;;;;;;;3.97;3.20;;;;;;;;;;4993671;28;20128;-59
2023/01/07 01:12:22;;;;;;;14.90;4.13;;;;;;;;;;4961187;28;20046;-59
2023/01/07 01:14:47;;;;;;;6.43;3.90;;;;;;;;;;4993471;28;20046;-59
2023/01/07 01:17:13;;;;;;;6.83;4.07;;;;;;;;;;4994073;28;20066;-57
2023/01/07 01:19:38;;;;;;;6.40;4.43;;;;;;;;;;4994742;28;20061;-56
2023/01/07 01:22:04;;;;;;;3.17;2.97;;;;;;;;;;4977596;28;20042;-60
2023/01/07 01:24:29;;;;;;;11.23;4.67;;;;;;;;;;4977335;28;20038;-59
2023/01/07 01:26:55;;;;;;;7.20;4.47;;;;;;;;;;4993485;28;20249;-60
2023/01/07 01:29:20;;;;;;;8.70;5.10;;;;;;;;;;4977203;28;20026;-59
2023/01/07 01:31:47;;;;;;;3.27;3.00;;;;;;;;;;4993563;28;20039;-63
2023/01/07 01:34:13;;;;;;;12.23;4.57;;;;;;;;;;4977382;28;20046;-59
2023/01/07 01:36:39;;;;;;;7.68;3.50;;;;;;;;;;4977467;28;20362;-57
2023/01/07 01:39:05;;;;;;;3.83;3.38;;;;;;;;;;4993520;28;20395;-60
2023/01/07 01:41:32;;;;;;;5.38;4.88;;;;;;;;;;4993426;28;20385;-59
2023/01/07 01:43:59;;;;;;;15.85;4.72;;;;;;;;;;4976757;28;20092;-58
2023/01/07 01:46:31;;;;;;;5.13;3.53;;;;;;;;;;4993089;28;20046;-60
2023/01/07 01:49:19;;;;;;;10.85;5.25;;;;;;;;;;4993396;28;20044;-59
2023/01/07 01:51:48;;;;;;;15.27;6.00;;;;;;;;;;4955705;28;20078;-56
2023/01/07 01:54:16;;;;;;;4.55;4.10;;;;;;;;;;4976785;28;20065;-56
2023/01/07 01:56:48;;;;;;;5.35;3.45;;;;;;;;;;4975572;28;20042;-59
2023/01/07 01:59:19;;;;;;;5.70;4.63;;;;;;;;;;4975089;28;20042;-61
2023/01/07 02:01:45;;;;;;;7.78;4.35;;;;;;;;;;4974732;28;20104;-62
2023/01/07 02:04:15;;;;;;;10.10;4.57;;;;;;;;;;4975191;28;20038;-62
2023/01/07 02:06:43;;;;;;;5.85;4.07;;;;;;;;;;4958772;28;20038;-60
2023/01/07 02:09:10;;;;;;;10.15;5.00;;;;;;;;;;4975085;28;20094;-59
2023/01/07 02:11:42;;;;;;;6.30;4.35;;;;;;;;;;4990808;28;20132;-62
2023/01/07 02:14:26;;;;;;;6.93;4.80;;;;;;;;;;4993524;28;20046;-60
2023/01/07 02:16:52;;;;;;;6.93;4.97;;;;;;;;;;4992492;28;20535;-62
2023/01/07 02:19:30;;;;;;;3.83;3.23;;;;;;;;;;4976521;28;20038;-60
2023/01/07 02:21:55;;;;;;;12.32;5.13;;;;;;;;;;4976210;28;20468;-59
2023/01/07 02:24:24;;;;;;;10.37;4.83;;;;;;;;;;4993297;28;20092;-60
2023/01/07 02:26:53;;;;;;;6.55;4.53;;;;;;;;;;4976137;28;20125;-62
2023/01/07 02:29:18;;;;;;;2.90;2.60;;;;;;;;;;4960432;28;20070;-58
2023/01/07 02:31:50;;;;;;;5.00;3.53;;;;;;;;;;4992485;28;20066;-57
2023/01/07 02:34:27;;;;;;;8.43;4.75;;;;;;;;;;4993546;28;20078;-56
2023/01/07 02:37:00;;;;;;;5.45;3.97;;;;;;;;;;4975826;28;20041;-60
2023/01/07 02:39:26;;;;;;;7.72;5.30;;;;;;;;;;4992062;28;20081;-60
2023/01/07 02:42:01;;;;;;;5.73;3.60;;;;;;;;;;4975978;28;20457;-60
2023/01/07 02:44:47;;;;;;;7.03;3.80;;;;;;;;;;4976125;28;20121;-61
2023/01/07 02:47:13;;;;;;;17.65;5.18;;;;;;;;;;4991093;28;20097;-58
2023/01/07 02:49:38;;;;;;;5.93;4.03;;;;;;;;;;4976218;28;20042;-60
2023/01/07 02:52:24;;;;;;;6.17;4.07;;;;;;;;;;4975927;28;20619;-64
2023/01/07 02:54:53;;;;;;;6.68;4.18;;;;;;;;;;4960052;28;20037;-62
2023/01/07 02:57:35;;;;;;;4.60;3.38;;;;;;;;;;4976100;28;20472;-60
2023/01/07 03:00:13;;;;;;;5.50;4.07;;;;;;;;;;4991878;28;20046;-61
2023/01/07 03:02:51;;;;;;;11.15;5.47;;;;;;;;;;4992751;28;20038;-58
2023/01/07 03:05:32;;;;;;;6.00;4.03;;;;;;;;;;4975892;28;20049;-60
2023/01/07 03:08:16;;;;;;;4.38;3.65;;;;;;;;;;4991787;28;20046;-60
2023/01/07 03:11:05;;;;;;;5.75;5.18;;;;;;;;;;4991784;28;20593;-61
2023/01/07 03:13:50;;;;;;;4.25;3.95;;;;;;;;;;4983775;28;20054;-58
2023/01/07 03:16:17;;;;;;;4.00;3.22;;;;;;;;;;4991791;28;20076;-63
2023/01/07 03:18:55;;;;;;;3.55;3.30;;;;;;;;;;4992722;28;20046;-59
2023/01/07 03:21:21;;;;;;;3.75;3.40;;;;;;;;;;4992057;28;20173;-59
2023/01/07 03:23:50;;;;;;;8.82;4.75;;;;;;;;;;4991711;28;20107;-59
2023/01/07 03:26:19;;;;;;;7.30;4.68;;;;;;;;;;4975395;28;20030;-59
2023/01/07 03:28:45;;;;;;;6.03;4.25;;;;;;;;;;4975227;28;20056;-60
2023/01/07 03:31:12;;;;;;;9.13;4.03;;;;;;;;;;4993189;28;20049;-56
2023/01/07 03:33:41;;;;;;;3.80;3.50;;;;;;;;;;4979111;28;20081;-60
2023/01/07 03:36:09;;;;;;;4.13;2.90;;;;;;;;;;4977504;28;20038;-56
2023/01/07 03:38:35;;;;;;;5.63;3.90;;;;;;;;;;4993972;28;20481;-58
2023/01/07 03:41:01;;;;;;;3.00;2.50;;;;;;;;;;4992750;28;20070;-59
2023/01/07 03:43:27;;;;;;;2.92;2.65;;;;;;;;;;4975903;28;20065;-62
2023/01/07 03:45:53;;;;;;;8.97;4.37;;;;;;;;;;4975429;28;20216;-64
2023/01/07 03:48:19;;;;;;;2.40;2.20;;;;;;;;;;4991498;28;20046;-59
2023/01/07 03:50:46;;;;;;;6.90;3.65;;;;;;;;;;4975059;28;20051;-59
2023/01/07 03:53:12;;;;;;;5.60;3.57;;;;;;;;;;4991784;28;20516;-59
2023/01/07 03:55:37;;;;;;;11.97;3.90;;;;;;;;;;4975318;28;20049;-59
2023/01/07 03:58:03;;;;;;;4.20;3.03;;;;;;;;;;4993033;28;20420;-60
2023/01/07 04:00:28;;;;;;;7.00;4.00;;;;;;;;;;4962668;28;20484;-60
2023/01/07 04:03:01;;;;;;;6.80;4.40;;;;;;;;;;4995082;28;20381;-60
2023/01/07 04:05:32;;;;;;;2.90;2.70;;;;;;;;;;4963664;28;20042;-61
2023/01/07 04:07:58;;;;;;;3.10;2.90;;;;;;;;;;4978871;28;20369;-59
2023/01/07 04:10:26;;;;;;;8.40;3.88;;;;;;;;;;4978608;28;20034;-60
2023/01/07 04:12:52;;;;;;;3.87;2.80;;;;;;;;;;4995007;28;20050;-59
2023/01/07 04:15:18;;;;;;;8.93;4.15;;;;;;;;;;4995410;28;20097;-56
2023/01/07 04:17:43;;;;;;;3.50;3.13;;;;;;;;;;4979456;28;20054;-57
2023/01/07 04:20:09;;;;;;;6.00;4.03;;;;;;;;;;4979224;28;20043;-58
2023/01/07 04:22:35;;;;;;;7.33;3.23;;;;;;;;;;4994688;28;20103;-58
2023/01/07 04:25:01;;;;;;;3.40;3.17;;;;;;;;;;4979563;28;20293;-60
2023/01/07 04:27:29;;;;;;;2.97;2.67;;;;;;;;;;4979414;28;20418;-59
2023/01/07 04:29:54;;;;;;;8.13;4.05;;;;;;;;;;4995110;28;20041;-61
2023/01/07 04:32:20;;;;;;;3.73;2.63;;;;;;;;;;4962240;28;20038;-57
2023/01/07 04:34:46;;;;;;;7.23;4.00;;;;;;;;;;4978325;28;20187;-59
2023/01/07 04:37:11;;;;;;;8.23;3.90;;;;;;;;;;4961802;28;20388;-56
2023/01/07 04:39:37;;;;;;;5.03;4.03;;;;;;;;;;4977937;28;20516;-59
2023/01/07 04:42:02;;;;;;;3.60;2.90;;;;;;;;;;4977490;28;20469;-63
2023/01/07 04:44:28;;;;;;;2.40;2.20;;;;;;;;;;4958523;28;20066;-59
2023/01/07 04:46:55;;;;;;;9.43;4.05;;;;;;;;;;4943483;28;20041;-60
2023/01/07 04:49:20;;;;;;;3.60;3.30;;;;;;;;;;4942805;28;20134;-60
2023/01/07 04:51:46;;;;;;;4.17;3.80;;;;;;;;;;4958918;28;20039;-59
2023/01/07 04:54:12;;;;;;;3.80;3.42;;;;;;;;;;4974733;28;20086;-60
2023/01/07 04:56:39;;;;;;;4.50;2.97;;;;;;;;;;4959201;28;20057;-60
2023/01/07 04:59:04;;;;;;;7.10;3.13;;;;;;;;;;4975201;28;20046;-60
2023/01/07 05:01:31;;;;;;;10.10;2.77;;;;;;;;;;4974518;28;20457;-59
2023/01/07 05:03:57;;;;;;;5.55;2.75;;;;;;;;;;4958766;28;20409;-59
2023/01/07 05:06:24;;;;;;;15.15;4.15;;;;;;;;;;4958891;28;20378;-60
2023/01/07 05:08:49;;;;;;;6.87;4.20;;;;;;;;;;4974140;28;20039;-59
2023/01/07 05:11:20;;;;;;;3.45;2.97;;;;;;;;;;4957793;28;20039;-57
2023/01/07 05:13:49;;;;;;;6.55;2.83;;;;;;;;;;4958509;28;20113;-60
2023/01/07 05:16:16;;;;;;;5.70;3.75;;;;;;;;;;4957983;28;20087;-62
2023/01/07 05:18:42;;;;;;;10.17;4.00;;;;;;;;;;4958010;28;20129;-60
2023/01/07 05:21:09;;;;;;;5.63;3.03;;;;;;;;;;4974424;28;20046;-59
2023/01/07 05:23:35;;;;;;;6.20;3.80;;;;;;;;;;4941845;28;20097;-59
2023/01/07 05:26:01;;;;;;;5.27;4.10;;;;;;;;;;4957544;28;20079;-61
2023/01/07 05:28:27;;;;;;;8.40;3.95;;;;;;;;;;4958021;28;20030;-60
2023/01/07 05:30:53;;;;;;;3.63;2.93;;;;;;;;;;4973955;28;20073;-58
2023/01/07 05:33:19;;;;;;;2.27;2.07;;;;;;;;;;4974002;28;20272;-59
2023/01/07 05:35:46;;;;;;;8.97;3.50;;;;;;;;;;4973791;28;20031;-59
2023/01/07 05:38:12;;;;;;;10.88;3.90;;;;;;;;;;4973692;28;20058;-61
2023/01/07 05:40:39;;;;;;;4.20;3.77;;;;;;;;;;4957585;28;20367;-59
2023/01/07 05:43:06;;;;;;;7.65;2.72;;;;;;;;;;4957249;28;20034;-59
2023/01/07 05:45:32;;;;;;;9.73;3.87;;;;;;;;;;4941265;28;20035;-58
2023/01/07 05:47:57;;;;;;;5.40;2.63;;;;;;;;;;4974755;28;20038;-61
2023/01/07 05:50:23;;;;;;;5.17;2.80;;;;;;;;;;4957708;28;20034;-59
2023/01/07 05:52:49;;;;;;;2.70;2.50;;;;;;;;;;4974470;28;20063;-61
2023/01/07 05:55:15;;;;;;;5.15;2.58;;;;;;;;;;4957228;28;20082;-60
2023/01/07 05:57:40;;;;;;;3.10;2.80;;;;;;;;;;4974350;28;20409;-61
2023/01/07 06:00:06;;;;;;;26.53;8.37;;;;;;;;;;4973913;28;20046;-62
2023/01/07 06:02:37;;;;;;;12.75;5.10;;;;;;;;;;4973146;28;20038;-60
2023/01/07 06:05:03;;;;;;;2.77;2.57;;;;;;;;;;4973027;28;20326;-61
2023/01/07 06:07:29;;;;;;;15.57;3.37;;;;;;;;;;4973306;28;20042;-60
2023/01/07 06:09:54;;;;;;;5.03;3.40;;;;;;;;;;4974382;28;20496;-60
2023/01/07 06:12:20;;;;;;;4.73;3.07;;;;;;;;;;4972831;28;20047;-59
2023/01/07 06:14:45;;;;;;;3.73;2.20;;;;;;;;;;4973761;28;20081;-60
2023/01/07 06:17:11;;;;;;;2.67;2.43;;;;;;;;;;4972990;28;20062;-61
2023/01/07 06:19:36;;;;;;;3.00;2.73;;;;;;;;;;4957172;28;20132;-59
2023/01/07 06:22:02;;;;;;;4.60;3.47;;;;;;;;;;4972181;28;20038;-65
2023/01/07 06:24:28;;;;;;;7.23;3.93;;;;;;;;;;4957137;28;20037;-64
2023/01/07 06:26:53;;;;;;;3.23;2.77;;;;;;;;;;4973241;28;20452;-63
2023/01/07 06:29:19;;;;;;;4.03;3.17;;;;;;;;;;4956850;28;20048;-63
2023/01/07 06:31:44;;;;;;;3.23;2.93;;;;;;;;;;4972843;28;20086;-62
2023/01/07 06:34:10;;;;;;;6.97;3.20;;;;;;;;;;4972527;28;20052;-63
2023/01/07 06:36:35;;;;;;;3.13;2.70;;;;;;;;;;4956339;28;20137;-65
2023/01/07 06:39:01;;;;;;;11.07;4.93;;;;;;;;;;4956629;28;20070;-64
2023/01/07 06:41:26;;;;;;;5.17;4.03;;;;;;;;;;4956144;28;20038;-64
2023/01/07 06:43:52;;;;;;;8.20;2.87;;;;;;;;;;4955996;28;20458;-64
2023/01/07 06:46:17;;;;;;;6.67;4.40;;;;;;;;;;4972014;28;20042;-64
2023/01/07 06:48:43;;;;;;;2.20;2.10;;;;;;;;;;4973496;28;20810;-65
2023/01/07 06:51:08;;;;;;;3.10;2.70;;;;;;;;;;4974940;28;20461;-64
2023/01/07 06:53:34;;;;;;;5.27;3.83;;;;;;;;;;4972969;28;20496;-66
2023/01/07 06:55:59;;;;;;;13.50;3.87;;;;;;;;;;4941762;28;20039;-62
2023/01/07 06:58:25;;;;;;;5.73;3.20;;;;;;;;;;4974397;28;20039;-61
2023/01/07 07:00:50;;;;;;;9.40;3.37;;;;;;;;;;4941412;28;20077;-62
2023/01/07 07:03:16;;;;;;;7.30;3.40;;;;;;;;;;4956117;28;20030;-63
2023/01/07 07:05:41;;;;;;;5.90;3.20;;;;;;;;;;4940313;28;20240;-63
2023/01/07 07:08:07;;;;;;;4.40;3.30;;;;;;;;;;4956256;28;20042;-64
2023/01/07 07:10:32;;;;;;;5.00;3.67;;;;;;;;;;4972461;28;20039;-63
2023/01/07 07:12:58;;;;;;;10.63;3.70;;;;;;;;;;4955467;28;20141;-64
2023/01/07 07:15:24;;;;;;;6.03;3.03;;;;;;;;;;4969048;28;20053;-62
2023/01/07 07:17:49;;;;;;;11.47;4.73;;;;;;;;;;4968429;28;20039;-63
2023/01/07 07:20:15;;;;;;;7.30;3.87;;;;;;;;;;4969686;28;20055;-64
2023/01/07 07:22:47;;;;;;;7.10;4.00;;;;;;;;;;4952495;28;20594;-64
2023/01/07 07:25:13;;;;;;;5.60;3.80;;;;;;;;;;4970016;28;20031;-63
2023/01/07 07:27:38;;;;;;;8.30;3.73;;;;;;;;;;4968858;28;20326;-65
2023/01/07 07:30:04;;;;;;;6.07;3.40;;;;;;;;;;4972674;28;20318;-63
2023/01/07 07:32:30;;;;;;;8.33;3.83;;;;;;;;;;4956614;28;20062;-63
2023/01/07 07:34:55;;;;;;;6.27;2.97;;;;;;;;;;4960264;28;20050;-63
2023/01/07 07:37:21;;;;;;;5.37;3.63;;;;;;;;;;4977135;28;20459;-63
2023/01/07 07:39:47;;;;;;;9.70;3.87;;;;;;;;;;4960096;28;20073;-63
2023/01/07 07:42:12;;;;;;;7.13;3.53;;;;;;;;;;4959973;28;20389;-63
2023/01/07 07:44:38;;;;;;;9.77;3.77;;;;;;;;;;4977386;28;20126;-64
2023/01/07 07:47:03;;;;;;;6.10;3.13;;;;;;;;;;4960438;28;20039;-64
2023/01/07 07:49:29;;;;;;;8.13;3.67;;;;;;;;;;4960041;28;20035;-64
2023/01/07 07:51:54;;;;;;;10.67;3.47;;;;;;;;;;4975860;28;20034;-65
2023/01/07 07:54:20;;;;;;;7.07;3.20;;;;;;;;;;4976778;28;20062;-64
2023/01/07 07:56:45;;;;;;;6.40;3.20;;;;;;;;;;4976201;28;20039;-64
2023/01/07 07:59:11;;;;;;;6.17;3.20;;;;;;;;;;4976294;28;20054;-64
2023/01/07 08:01:36;;;;;;;7.93;3.37;;;;;;;;;;4943587;28;20031;-64
2023/01/07 08:04:02;;;;;;;10.30;3.23;;;;;;;;;;4975671;28;20039;-64
2023/01/07 08:06:28;;;;;;;8.40;3.33;;;;;;;;;;4976462;28;20035;-64
2023/01/07 08:08:53;;;;;;;6.63;3.27;;;;;;;;;;4959605;28;20051;-64
2023/01/07 08:11:19;;;;;;;8.93;3.77;;;;;;;;;;4975299;28;20469;-64
2023/01/07 08:13:44;;;;;;;6.83;3.07;;;;;;;;;;4959288;28;20038;-64
2023/01/07 08:16:10;;;;;;;5.87;3.50;;;;;;;;;;4943452;28;20130;-64
2023/01/07 08:18:35;;;;;;;6.53;3.40;;;;;;;;;;4975755;28;20038;-64
2023/01/07 08:21:01;;;;;;;6.40;3.53;;;;;;;;;;4959477;28;20038;-64
2023/01/07 08:23:30;;;;;;;6.38;3.20;;;;;;;;;;4976395;28;20167;-65
2023/01/07 08:25:59;;;;;;;6.10;3.50;;;;;;;;;;4959164;28;20137;-64
2023/01/07 08:28:25;;;;;;;7.03;3.03;;;;;;;;;;4975385;28;20042;-65
2023/01/07 08:30:50;;;;;;;6.28;3.28;;;;;;;;;;4976218;28;20035;-64
2023/01/07 08:33:16;;;;;;;6.68;3.38;;;;;;;;;;4975937;28;20074;-64
2023/01/07 08:35:41;;;;;;;8.55;3.42;;;;;;;;;;4976077;28;20045;-65
2023/01/07 08:38:08;;;;;;;5.60;3.30;;;;;;;;;;4975438;28;20445;-65
2023/01/07 08:40:34;;;;;;;8.52;4.30;;;;;;;;;;4974825;28;20129;-65
2023/01/07 08:43:00;;;;;;;11.48;4.50;;;;;;;;;;4942956;28;20544;-65
2023/01/07 08:45:26;;;;;;;9.02;4.00;;;;;;;;;;4958574;28;20030;-64
2023/01/07 08:47:51;;;;;;;6.22;3.85;;;;;;;;;;4974890;28;20051;-65
2023/01/07 08:50:18;;;;;;;6.70;3.22;;;;;;;;;;4975662;28;20039;-65
2023/01/07 08:52:47;;;;;;;11.07;3.35;;;;;;;;;;4975494;28;20114;-65
2023/01/07 08:55:13;;;;;;;7.10;3.55;;;;;;;;;;4974869;28;20133;-65
2023/01/07 08:57:38;;;;;;;6.88;3.58;;;;;;;;;;4958555;28;20133;-65
2023/01/07 09:00:04;;;;;;;7.15;3.95;;;;;;;;;;4958750;28;20400;-65
2023/01/07 09:02:31;;;;;;;8.07;3.90;;;;;;;;;;4974571;28;20038;-65
2023/01/07 09:04:56;;;;;;;5.78;3.35;;;;;;;;;;4974642;28;20058;-65
2023/01/07 09:07:22;;;;;;;6.55;3.50;;;;;;;;;;4974406;28;20050;-65
2023/01/07 09:09:47;;;;;;;8.38;3.95;;;;;;;;;;4975220;28;20053;-65
2023/01/07 09:12:13;;;;;;;7.07;3.47;;;;;;;;;;4975262;28;20461;-65
2023/01/07 09:14:39;;;;;;;9.15;3.78;;;;;;;;;;4958423;28;20130;-64
2023/01/07 09:17:04;;;;;;;7.10;3.35;;;;;;;;;;4958002;28;20428;-65
2023/01/07 09:19:29;;;;;;;7.60;3.67;;;;;;;;;;4975091;28;20035;-65
2023/01/07 09:21:55;;;;;;;7.78;4.03;;;;;;;;;;4958260;28;20047;-65
2023/01/07 09:24:21;;;;;;;8.90;3.60;;;;;;;;;;4975038;28;20054;-66
2023/01/07 09:26:46;;;;;;;5.85;3.25;;;;;;;;;;4974090;28;20438;-65
2023/01/07 09:29:12;;;;;;;9.10;3.90;;;;;;;;;;4957978;28;20035;-65
2023/01/07 09:31:37;;;;;;;9.18;4.53;;;;;;;;;;4974262;28;20057;-65
2023/01/07 09:34:03;;;;;;;8.32;3.97;;;;;;;;;;4974959;28;20055;-65
2023/01/07 09:36:28;;;;;;;9.63;4.45;;;;;;;;;;4974659;28;20066;-68
2023/01/07 09:38:54;;;;;;;7.30;4.20;;;;;;;;;;4973912;28;20030;-65
2023/01/07 09:41:28;;;;;;;9.43;4.38;;;;;;;;;;4974698;28;20039;-65
2023/01/07 09:43:56;;;;;;;7.18;4.53;;;;;;;;;;4941629;28;20047;-65
2023/01/07 09:46:21;;;;;;;7.40;4.00;;;;;;;;;;4973575;28;20393;-65
2023/01/07 09:48:50;;;;;;;6.35;4.15;;;;;;;;;;4973739;28;20097;-65
2023/01/07 09:51:35;;;;;;;11.60;4.70;;;;;;;;;;4957428;28;20473;-65
2023/01/07 09:54:02;;;;;;;8.95;4.60;;;;;;;;;;4974208;28;20066;-65
2023/01/07 09:56:35;;;;;;;11.10;4.70;;;;;;;;;;4974056;28;20046;-66
2023/01/07 09:59:02;;;;;;;11.60;5.80;;;;;;;;;;4974055;28;20128;-65
2023/01/07 10:01:40;;;;;;;11.60;4.90;;;;;;;;;;4973593;28;20039;-66
2023/01/07 10:04:11;;;;;;;12.85;5.63;;;;;;;;;;4973206;28;20039;-66
2023/01/07 10:06:43;;;;;;;10.40;5.95;;;;;;;;;;4973258;28;20041;-66
2023/01/07 10:09:18;;;;;;;9.60;5.70;;;;;;;;;;4957279;28;20045;-66
2023/01/07 10:12:03;;;;;;;11.68;4.97;;;;;;;;;;4957358;28;20142;-65
2023/01/07 10:14:36;;;;;;;10.63;5.50;;;;;;;;;;4973237;28;20050;-65
2023/01/07 10:17:08;;;;;;;10.82;5.72;;;;;;;;;;4956944;28;20389;-65
2023/01/07 10:19:42;;;;;;;9.52;4.93;;;;;;;;;;4973197;28;20473;-65
2023/01/07 10:22:14;;;;;;;10.82;5.70;;;;;;;;;;4973543;28;20039;-65
2023/01/07 10:24:41;;;;;;;12.43;7.10;;;;;;;;;;4957082;28;20577;-65
2023/01/07 10:27:09;;;;;;;10.60;5.53;;;;;;;;;;4956726;28;20027;-68
2023/01/07 10:29:35;;;;;;;10.77;5.53;;;;;;;;;;4973030;28;20093;-65
2023/01/07 10:32:06;;;;;;;9.50;4.80;;;;;;;;;;4956914;28;20077;-65
2023/01/07 10:34:31;;;;;;;;;;;;;;;;;;4957225;28;20428;-65
2023/01/07 10:37:26;;;;;;;9.18;4.63;;;;;;;;;;4972807;28;19921;-65
2023/01/07 10:39:58;;;;;;;7.72;4.53;;;;;;;;;;4968514;28;20070;-65
2023/01/07 10:42:36;;;;;;;10.32;5.03;;;;;;;;;;4973329;28;20348;-65
2023/01/07 10:45:10;;;;;;;8.40;4.30;;;;;;;;;;4973661;28;20477;-65
2023/01/07 10:47:40;;;;;;;10.60;4.53;;;;;;;;;;4972549;28;20042;-67
2023/01/07 10:50:32;;;;;;;9.25;4.70;;;;;;;;;;4956667;28;20189;-65
2023/01/07 10:53:21;;;;;;;8.73;5.38;;;;;;;;;;4970403;28;20429;-66
2023/01/07 10:55:47;;;;;;;11.63;5.45;;;;;;;;;;4973304;28;20042;-69
2023/01/07 10:58:12;;;;;;;10.13;5.07;;;;;;;;;;4973501;28;20101;-66
2023/01/07 11:00:46;;;;;;;9.32;4.57;;;;;;;;;;4972512;28;20038;-65
2023/01/07 11:03:20;;;;;;;11.63;5.55;;;;;;;;;;4972707;28;20049;-65
2023/01/07 11:05:47;;;;;;;11.52;5.57;;;;;;;;;;4973933;28;20049;-65
2023/01/07 11:08:18;;;;;;;9.15;4.68;;;;;;;;;;4971990;28;20031;-65
2023/01/07 11:10:43;;;;;;;10.52;5.32;;;;;;;;;;4973954;28;20100;-65
2023/01/07 11:13:19;;;;;;;8.38;5.03;;;;;;;;;;4956573;28;20420;-66
2023/01/07 11:15:59;;;;;;;13.32;5.20;;;;;;;;;;4956797;28;20038;-65
2023/01/07 11:18:43;;;;;;;10.35;5.63;;;;;;;;;;4973551;28;20049;-65
2023/01/07 11:21:09;;;;;;;11.80;5.57;;;;;;;;;;4956216;28;20039;-66
2023/01/07 11:23:35;;;;;;;10.38;5.60;;;;;;;;;;4956336;28;20058;-65
2023/01/07 11:26:10;;;;;;;8.18;5.05;;;;;;;;;;4956276;28;20043;-65
2023/01/07 11:28:39;;;;;;;8.65;4.80;;;;;;;;;;4956163;28;20042;-65
2023/01/07 11:31:05;;;;;;;11.25;5.45;;;;;;;;;;4972297;28;20031;-65
2023/01/07 11:33:34;;;;;;;13.00;5.45;;;;;;;;;;4956499;28;20551;-65
2023/01/07 11:35:59;;;;;;;12.63;5.93;;;;;;;;;;4956363;28;20030;-65
2023/01/07 11:38:26;;;;;;;12.05;5.72;;;;;;;;;;4972191;28;20053;-65
2023/01/07 11:40:59;;;;;;;12.10;5.30;;;;;;;;;;4973105;28;20050;-66
2023/01/07 11:43:29;;;;;;;13.13;6.82;;;;;;;;;;4972292;28;20043;-65
2023/01/07 11:45:59;;;;;;;12.38;6.57;;;;;;;;;;4955940;28;20090;-64
2023/01/07 11:48:29;;;;;;;13.02;6.88;;;;;;;;;;4971690;28;20046;-65
2023/01/07 11:50:56;;;;;;;45.88;21.00;;;;;;;;;;4955849;28;20042;-65
2023/01/07 11:53:32;;;;;;;28.70;13.95;;;;;;;;;;4972627;28;20077;-64
2023/01/07 11:55:59;;;;;;;32.63;16.08;;;;;;;;;;4955755;28;20449;-65
2023/01/07 11:58:26;;;;;;;58.67;24.50;;;;;;;;;;4971943;28;20039;-65
2023/01/07 12:01:07;;;;;;;48.17;18.23;;;;;;;;;;4955740;28;20057;-65
2023/01/07 12:03:56;;;;;;;31.77;13.35;;;;;;;;;;4971780;28;20149;-65
2023/01/07 12:06:47;;;;;;;15.40;7.20;;;;;;;;;;4955327;28;20066;-66
2023/01/07 12:09:22;;;;;;;15.30;7.07;;;;;;;;;;4972131;28;20030;-64
2023/01/07 12:11:48;;;;;;;15.00;7.67;;;;;;;;;;4974097;28;20550;-64
2023/01/07 12:14:15;;;;;;;15.57;7.10;;;;;;;;;;4959571;28;20057;-64
2023/01/07 12:16:42;;;;;;;16.30;7.07;;;;;;;;;;4958268;28;20122;-65
2023/01/07 12:19:10;;;;;;;17.40;7.13;;;;;;;;;;4958411;28;20031;-64
2023/01/07 12:21:42;;;;;;;15.70;7.17;;;;;;;;;;4976281;28;20038;-65
2023/01/07 12:24:20;;;;;;;16.07;6.80;;;;;;;;;;4960325;28;20047;-64
2023/01/07 12:26:45;;;;;;;14.67;7.30;;;;;;;;;;4960192;28;20042;-64
2023/01/07 12:29:19;;;;;;;19.33;8.00;;;;;;;;;;4960497;28;20038;-64
2023/01/07 12:32:14;;;;;;;17.63;8.20;;;;;;;;;;4975913;28;20047;-64
2023/01/07 12:34:48;;;;;;;30.87;9.77;;;;;;;;;;4926030;28;20058;-64
2023/01/07 12:37:19;;;;;;;20.27;9.17;;;;;;;;;;4976834;28;20585;-63
2023/01/07 12:39:45;;;;;;;17.97;8.60;;;;;;;;;;4961258;28;20843;-64
2023/01/07 12:42:16;;;;;;;23.43;9.20;;;;;;;;;;4945881;28;20377;-64
2023/01/07 12:44:45;;;;;;;18.30;8.20;;;;;;;;;;4977823;28;20042;-64
2023/01/07 12:47:13;;;;;;;16.33;7.70;;;;;;;;;;4976966;28;20597;-64
2023/01/07 12:49:44;;;;;;;16.53;7.60;;;;;;;;;;4960486;28;20586;-63
2023/01/07 12:52:10;;;;;;;17.27;7.87;;;;;;;;;;4976782;28;20293;-64
2023/01/07 12:54:42;;;;;;;20.10;7.57;;;;;;;;;;4943582;28;20306;-63
2023/01/07 12:57:19;;;;;;;15.27;6.93;;;;;;;;;;4943670;28;20039;-64
2023/01/07 13:00:07;;;;;;;15.43;6.53;;;;;;;;;;4959466;28;20278;-63
2023/01/07 13:02:43;;;;;;;17.93;8.73;;;;;;;;;;4959290;28;20349;-64
2023/01/07 13:05:16;;;;;;;14.37;6.17;;;;;;;;;;4975186;28;20293;-63
2023/01/07 13:07:47;;;;;;;20.60;7.23;;;;;;;;;;4974894;28;20286;-63
2023/01/07 13:10:12;;;;;;;;;;;;;;;;;;4976001;28;20274;-63
2023/01/07 13:12:42;;;;;;;10.40;6.43;;;;;;;;;;4943279;28;19925;-64
2023/01/07 13:15:25;;;;;;;13.32;6.85;;;;;;;;;;4976215;28;20152;-64
2023/01/07 13:17:55;;;;;;;22.10;7.13;;;;;;;;;;4960204;28;20483;-63
2023/01/07 13:20:33;;;;;;;14.38;6.30;;;;;;;;;;4959327;28;20376;-64
2023/01/07 13:22:59;;;;;;;18.33;7.17;;;;;;;;;;4958731;28;20039;-64
2023/01/07 13:25:50;;;;;;;17.07;6.97;;;;;;;;;;4943209;28;20590;-66
2023/01/07 13:28:16;;;;;;;;;;;;;;;;;;4975899;28;20309;-64
2023/01/07 13:30:41;;;;;;;9.23;5.60;;;;;;;;;;4974150;28;19959;-65
2023/01/07 13:33:14;;;;;;;16.17;5.30;;;;;;;;;;4942723;28;20090;-64
2023/01/07 13:35:48;;;;;;;10.53;5.13;;;;;;;;;;4975051;28;20334;-64
2023/01/07 13:38:25;;;;;;;28.20;7.43;;;;;;;;;;4975380;28;20382;-64
2023/01/07 13:41:17;;;;;;;14.73;6.80;;;;;;;;;;4942748;28;20747;-63
2023/01/07 13:44:09;;;;;;;22.63;6.23;;;;;;;;;;4942725;28;20286;-63
2023/01/07 13:46:36;;;;;;;12.40;7.30;;;;;;;;;;4940513;28;20728;-63
2023/01/07 13:49:02;;;;;;;7.07;5.17;;;;;;;;;;4958163;28;20286;-63
2023/01/07 13:51:29;;;;;;;17.63;7.53;;;;;;;;;;4974716;28;20350;-63
2023/01/07 13:53:55;;;;;;;15.53;6.67;;;;;;;;;;4958511;28;20059;-63
2023/01/07 13:56:21;;;;;;;17.10;8.20;;;;;;;;;;4973636;28;20290;-64
2023/01/07 13:59:00;;;;;;;16.47;6.40;;;;;;;;;;4976171;28;20382;-67
2023/01/07 14:01:45;;;;;;;12.23;7.00;;;;;;;;;;4958571;28;20336;-65
2023/01/07 14:04:29;;;;;;;20.50;7.27;;;;;;;;;;4972799;28;20328;-64
2023/01/07 14:06:58;;;;;;;7.43;5.33;;;;;;;;;;4974292;28;20270;-64
2023/01/07 14:09:26;;;;;;;14.37;5.87;;;;;;;;;;4949489;28;20332;-64
2023/01/07 14:12:00;;;;;;;11.63;6.23;;;;;;;;;;4989465;28;20286;-65
2023/01/07 14:14:45;;;;;;;14.10;8.37;;;;;;;;;;4994197;28;20310;-65
2023/01/07 14:17:14;;;;;;;17.83;8.47;;;;;;;;;;4974454;28;20317;-64
2023/01/07 14:19:45;;;;;;;11.50;7.00;;;;;;;;;;4990232;28;20351;-64
2023/01/07 14:22:19;;;;;;;11.77;6.27;;;;;;;;;;4990029;28;20285;-64
2023/01/07 14:25:14;;;;;;;8.10;5.20;;;;;;;;;;4981985;28;20780;-64
2023/01/07 14:27:46;;;;;;;11.97;5.83;;;;;;;;;;4891483;28;20597;-64
2023/01/07 14:30:14;;;;;;;11.70;5.53;;;;;;;;;;4975290;28;20278;-65
2023/01/07 14:32:40;;;;;;;13.10;7.03;;;;;;;;;;4970856;28;20612;-65
2023/01/07 14:35:18;;;;;;;18.10;6.60;;;;;;;;;;4971304;28;20300;-64
2023/01/07 14:37:45;;;;;;;25.17;7.27;;;;;;;;;;4955540;28;20097;-69
2023/01/07 14:40:31;;;;;;;13.33;6.57;;;;;;;;;;4972244;28;20278;-64
2023/01/07 14:43:01;;;;;;;13.07;5.87;;;;;;;;;;4955240;28;20282;-64
2023/01/07 14:45:39;;;;;;;14.35;6.82;;;;;;;;;;4955556;28;20306;-65
2023/01/07 14:48:08;;;;;;;10.10;6.70;;;;;;;;;;4971842;28;20042;-65
2023/01/07 14:50:36;;;;;;;11.18;6.40;;;;;;;;;;4955475;28;20353;-64